Time;durP1;ratioP1;P1;durP2;ratioP2;P2;SDS_P1;SDS_P2;PMS_P1;PMS_P2;Temp;Humidity;BMP_temperature;BMP_pressure;BME280_temperature;BME280_humidity;BME280_pressure;Samples;Min_cycle;Max_cycle;Signal;HPM_P1;HPM_P2
2021/01/26 00:02:04;;;;;;;13.90;10.52;;;4.60;99.90;;;;;;5112454;28;20295;-72
2021/01/26 00:04:30;;;;;;;17.10;10.30;;;4.60;99.90;;;;;;5098417;28;20217;-72
2021/01/26 00:06:57;;;;;;;18.50;11.50;;;4.60;99.90;;;;;;5091952;28;20540;-73
2021/01/26 00:09:24;;;;;;;13.88;9.48;;;4.60;99.90;;;;;;5091287;28;20197;-73
2021/01/26 00:11:50;;;;;;;13.73;9.82;;;4.70;99.90;;;;;;5097504;28;20193;-72
2021/01/26 00:14:16;;;;;;;16.50;10.00;;;4.60;99.90;;;;;;5111825;28;20197;-73
2021/01/26 00:16:43;;;;;;;17.70;10.07;;;4.60;99.90;;;;;;5111196;28;20193;-73
2021/01/26 00:19:09;;;;;;;11.77;9.35;;;4.70;99.90;;;;;;5111033;28;20205;-73
2021/01/26 00:21:35;;;;;;;11.85;9.45;;;4.70;99.90;;;;;;5110510;28;20201;-73
2021/01/26 00:24:01;;;;;;;14.90;10.00;;;4.70;99.90;;;;;;5109496;28;20200;-74
2021/01/26 00:26:29;;;;;;;18.45;9.98;;;4.70;99.90;;;;;;5107478;28;20307;-73
2021/01/26 00:28:55;;;;;;;12.98;9.60;;;4.70;99.90;;;;;;5091614;28;20734;-73
2021/01/26 00:31:21;;;;;;;16.25;10.07;;;4.60;99.90;;;;;;5108120;28;20197;-75
2021/01/26 00:33:47;;;;;;;13.48;10.15;;;4.70;99.90;;;;;;5101851;28;20197;-76
2021/01/26 00:36:14;;;;;;;11.13;9.10;;;4.60;99.90;;;;;;5090892;28;20660;-74
2021/01/26 00:38:40;;;;;;;13.45;9.70;;;4.60;99.90;;;;;;5093060;28;20217;-73
2021/01/26 00:41:06;;;;;;;11.68;9.90;;;4.60;99.90;;;;;;5111727;28;20200;-73
2021/01/26 00:43:33;;;;;;;13.23;10.00;;;4.70;99.90;;;;;;5091853;28;20258;-72
2021/01/26 00:45:59;;;;;;;11.60;9.05;;;4.70;99.90;;;;;;5090685;28;20290;-73
2021/01/26 00:48:26;;;;;;;11.48;8.45;;;4.70;99.90;;;;;;5100762;28;20207;-73
2021/01/26 00:50:52;;;;;;;11.52;9.65;;;4.70;99.90;;;;;;5111126;28;20192;-73
2021/01/26 00:53:18;;;;;;;12.32;9.55;;;4.70;99.90;;;;;;5111518;28;20200;-73
2021/01/26 00:55:44;;;;;;;15.13;9.30;;;4.70;99.90;;;;;;5108442;28;20278;-73
2021/01/26 00:58:11;;;;;;;12.40;9.80;;;4.70;99.90;;;;;;5112036;28;20207;-73
2021/01/26 01:00:39;;;;;;;15.98;7.65;;;4.70;99.90;;;;;;5111724;28;20197;-73
2021/01/26 01:03:06;;;;;;;13.23;9.00;;;4.70;99.90;;;;;;5111449;28;20203;-72
2021/01/26 01:05:32;;;;;;;14.15;9.18;;;4.70;99.90;;;;;;5093157;28;20197;-73
2021/01/26 01:07:59;;;;;;;9.75;7.97;;;4.70;99.90;;;;;;5109522;28;20197;-74
2021/01/26 01:10:28;;;;;;;10.88;7.28;;;4.70;99.90;;;;;;5099490;28;20590;-73
2021/01/26 01:12:55;;;;;;;11.40;8.82;;;4.80;99.90;;;;;;5091587;28;20201;-73
2021/01/26 01:15:22;;;;;;;10.32;9.20;;;4.80;99.90;;;;;;5110347;28;20196;-73
2021/01/26 01:17:50;;;;;;;9.13;8.23;;;4.80;99.90;;;;;;5100962;28;20193;-72
2021/01/26 01:20:19;;;;;;;11.27;9.25;;;4.70;99.90;;;;;;5090826;28;20225;-73
2021/01/26 01:22:46;;;;;;;9.95;8.27;;;4.70;99.90;;;;;;5091135;28;20197;-74
2021/01/26 01:25:12;;;;;;;10.65;8.88;;;4.70;99.90;;;;;;5109256;28;20200;-74
2021/01/26 01:27:39;;;;;;;9.32;8.30;;;4.80;99.90;;;;;;5101994;28;20201;-75
2021/01/26 01:30:08;;;;;;;11.90;8.63;;;4.80;99.90;;;;;;5090799;28;20193;-73
2021/01/26 01:32:34;;;;;;;13.30;8.18;;;4.80;99.90;;;;;;5097041;28;20621;-73
2021/01/26 01:35:01;;;;;;;10.85;8.55;;;4.70;99.90;;;;;;5101401;28;20595;-72
2021/01/26 01:37:28;;;;;;;13.23;7.68;;;4.80;99.90;;;;;;5111177;28;20257;-77
2021/01/26 01:39:54;;;;;;;12.35;7.60;;;4.80;99.90;;;;;;5098272;28;20217;-73
2021/01/26 01:42:20;;;;;;;12.20;8.75;;;4.80;99.90;;;;;;5101392;28;20664;-74
2021/01/26 01:44:46;;;;;;;13.63;7.63;;;4.80;99.90;;;;;;5104259;28;20212;-73
2021/01/26 01:47:18;;;;;;;10.90;7.75;;;4.80;99.90;;;;;;5111273;28;20185;-73
2021/01/26 01:49:46;;;;;;;12.18;8.40;;;4.80;99.90;;;;;;5110871;28;20193;-73
2021/01/26 01:52:18;;;;;;;9.90;7.68;;;4.80;99.90;;;;;;5108272;28;20641;-74
2021/01/26 01:54:49;;;;;;;9.77;7.63;;;4.80;99.90;;;;;;5094964;28;20193;-73
2021/01/26 01:57:22;;;;;;;11.27;7.35;;;4.80;99.90;;;;;;5092997;28;20257;-73
2021/01/26 01:59:54;;;;;;;9.15;8.25;;;4.80;99.90;;;;;;5111285;28;20204;-73
2021/01/26 02:02:20;;;;;;;10.25;7.43;;;4.80;99.90;;;;;;5115420;28;20185;-73
2021/01/26 02:04:47;;;;;;;9.15;7.55;;;4.80;99.90;;;;;;5114683;28;20260;-74
2021/01/26 02:07:14;;;;;;;11.20;7.53;;;4.80;99.90;;;;;;5110952;28;20626;-73
2021/01/26 02:09:41;;;;;;;9.23;8.05;;;4.80;99.90;;;;;;5102551;28;20274;-75
2021/01/26 02:12:11;;;;;;;8.23;6.28;;;4.80;99.90;;;;;;5106164;28;20193;-73
2021/01/26 02:14:40;;;;;;;9.90;7.55;;;4.80;99.90;;;;;;5114822;28;20205;-73
2021/01/26 02:17:18;;;;;;;11.63;7.95;;;4.80;99.90;;;;;;5099687;28;20245;-75
2021/01/26 02:20:18;;;;;;;8.63;7.60;;;4.70;99.90;;;;;;5102938;28;20193;-75
2021/01/26 02:23:15;;;;;;;10.88;7.47;;;4.70;99.90;;;;;;5080717;28;20640;-75
2021/01/26 02:26:18;;;;;;;7.75;6.90;;;4.80;99.90;;;;;;5101565;28;20212;-75
2021/01/26 02:28:55;;;;;;;8.77;6.05;;;4.80;99.90;;;;;;5059813;28;20204;-75
2021/01/26 02:32:01;;;;;;;7.20;6.50;;;4.80;99.90;;;;;;5094192;28;20197;-75
2021/01/26 02:35:16;;;;;;;6.57;5.97;;;4.80;99.90;;;;;;5105532;28;20287;-74
2021/01/26 02:38:21;;;;;;;9.13;5.80;;;4.90;99.90;;;;;;5113229;28;20250;-74
2021/01/26 02:40:53;;;;;;;7.97;6.38;;;4.90;99.90;;;;;;5094154;28;20201;-74
2021/01/26 02:43:43;;;;;;;9.30;6.15;;;4.90;99.90;;;;;;5094366;28;20200;-74
2021/01/26 02:46:19;;;;;;;7.00;6.30;;;4.90;99.90;;;;;;5100364;28;20221;-74
2021/01/26 02:49:02;;;;;;;6.50;5.72;;;4.90;99.90;;;;;;5104038;28;20214;-74
2021/01/26 02:51:34;;;;;;;10.15;5.95;;;4.80;99.90;;;;;;5114450;28;20208;-74
2021/01/26 02:54:06;;;;;;;6.97;6.35;;;4.90;99.90;;;;;;5103939;28;20246;-74
2021/01/26 02:56:40;;;;;;;5.70;4.80;;;4.80;99.90;;;;;;5107999;28;20193;-74
2021/01/26 02:59:16;;;;;;;7.40;6.10;;;4.80;99.90;;;;;;5099787;28;20224;-74
2021/01/26 03:01:47;;;;;;;6.68;5.93;;;4.80;99.90;;;;;;5094065;28;20200;-74
2021/01/26 03:04:20;;;;;;;6.70;5.80;;;4.80;99.90;;;;;;5094067;28;20197;-74
2021/01/26 03:06:51;;;;;;;6.40;5.55;;;4.90;99.90;;;;;;5100288;28;20195;-74
2021/01/26 03:09:23;;;;;;;7.22;5.47;;;4.90;99.90;;;;;;5113593;28;20180;-74
2021/01/26 03:11:54;;;;;;;5.22;4.72;;;4.90;99.90;;;;;;5099311;28;20189;-74
2021/01/26 03:14:27;;;;;;;7.55;5.70;;;4.90;99.90;;;;;;5094950;28;20527;-74
2021/01/26 03:16:59;;;;;;;8.32;5.93;;;4.90;99.90;;;;;;5110463;28;20231;-74
2021/01/26 03:19:30;;;;;;;5.68;4.82;;;5.00;99.90;;;;;;5093099;28;21007;-73
2021/01/26 03:22:00;;;;;;;5.22;4.68;;;4.90;99.90;;;;;;5093528;28;20197;-74
2021/01/26 03:24:29;;;;;;;5.70;4.53;;;4.90;99.90;;;;;;5113471;28;20197;-73
2021/01/26 03:26:58;;;;;;;5.43;4.20;;;4.90;99.90;;;;;;5101546;28;20197;-74
2021/01/26 03:29:29;;;;;;;5.63;5.05;;;4.90;99.90;;;;;;5104513;28;20201;-74
2021/01/26 03:31:58;;;;;;;5.20;4.70;;;4.90;99.90;;;;;;5093337;28;20189;-75
2021/01/26 03:34:24;;;;;;;6.85;4.90;;;4.90;99.90;;;;;;5113082;28;20223;-74
2021/01/26 03:36:51;;;;;;;4.10;3.70;;;4.90;99.90;;;;;;5113653;28;20189;-74
2021/01/26 03:39:18;;;;;;;6.30;3.63;;;4.90;99.90;;;;;;5100202;28;20225;-74
2021/01/26 03:41:44;;;;;;;5.60;4.68;;;5.00;99.90;;;;;;5113007;28;20204;-74
2021/01/26 03:44:13;;;;;;;8.30;4.20;;;4.90;99.90;;;;;;5094294;28;20201;-74
2021/01/26 03:47:08;;;;;;;5.30;3.70;;;4.90;99.90;;;;;;5094899;28;20213;-74
2021/01/26 03:49:58;;;;;;;4.80;3.35;;;4.90;99.90;;;;;;5092820;28;20648;-74
2021/01/26 03:52:42;;;;;;;3.75;3.15;;;5.00;99.90;;;;;;5092848;28;20588;-74
2021/01/26 03:55:17;;;;;;;5.63;3.50;;;5.00;99.90;;;;;;5099649;28;20199;-74
2021/01/26 03:58:00;;;;;;;6.55;4.28;;;5.00;99.90;;;;;;5113183;28;20328;-74
2021/01/26 04:00:34;;;;;;;4.22;2.67;;;5.00;99.90;;;;;;5112380;28;20216;-74
2021/01/26 04:03:26;;;;;;;9.85;3.80;;;5.00;99.90;;;;;;5112806;28;20200;-74
2021/01/26 04:05:57;;;;;;;6.80;3.00;;;5.00;99.90;;;;;;5113298;28;20203;-74
2021/01/26 04:08:32;;;;;;;3.65;2.80;;;5.00;99.90;;;;;;5098244;28;20533;-76
2021/01/26 04:11:07;;;;;;;3.20;2.58;;;5.00;99.90;;;;;;5101056;28;20613;-73
2021/01/26 04:13:40;;;;;;;4.18;3.30;;;5.00;99.90;;;;;;5112872;28;20200;-74
2021/01/26 04:16:07;;;;;;;4.90;3.33;;;5.00;99.90;;;;;;5112238;28;20231;-74
2021/01/26 04:18:39;;;;;;;6.45;3.22;;;5.00;99.90;;;;;;5112152;28;20624;-73
2021/01/26 04:21:08;;;;;;;5.18;3.75;;;5.00;99.90;;;;;;5105112;28;20205;-74
2021/01/26 04:23:34;;;;;;;3.33;3.03;;;5.00;99.90;;;;;;5092272;28;20212;-74
2021/01/26 04:26:06;;;;;;;6.32;3.08;;;5.00;99.90;;;;;;5092142;28;20216;-73
2021/01/26 04:28:37;;;;;;;6.07;3.05;;;5.00;99.90;;;;;;5108671;28;20566;-73
2021/01/26 04:31:05;;;;;;;3.47;2.38;;;5.00;99.90;;;;;;5091820;28;20194;-74
2021/01/26 04:33:33;;;;;;;5.93;2.92;;;5.00;99.90;;;;;;5092288;28;20223;-73
2021/01/26 04:35:59;;;;;;;3.55;2.20;;;5.00;99.90;;;;;;5092103;28;20204;-74
2021/01/26 04:38:26;;;;;;;6.03;2.92;;;5.00;99.90;;;;;;5110351;28;20201;-74
2021/01/26 04:40:58;;;;;;;6.80;2.63;;;5.00;99.90;;;;;;5103059;28;20201;-74
2021/01/26 04:43:32;;;;;;;4.18;2.13;;;5.00;99.90;;;;;;5092044;28;20196;-74
2021/01/26 04:46:10;;;;;;;8.65;2.60;;;5.00;99.90;;;;;;5100714;28;20224;-74
2021/01/26 04:48:44;;;;;;;5.30;2.10;;;5.00;99.90;;;;;;5100201;28;20238;-74
2021/01/26 04:51:18;;;;;;;4.53;2.42;;;5.10;99.90;;;;;;5111754;28;20180;-74
2021/01/26 04:54:14;;;;;;;11.07;3.10;;;5.10;99.90;;;;;;5111523;28;20193;-73
2021/01/26 04:56:47;;;;;;;4.55;3.20;;;5.10;99.90;;;;;;5088117;28;20197;-73
2021/01/26 04:59:28;;;;;;;6.22;2.65;;;5.10;99.90;;;;;;5110843;28;20220;-74
2021/01/26 05:02:14;;;;;;;6.03;2.30;;;5.10;99.90;;;;;;5093478;28;20189;-74
2021/01/26 05:04:44;;;;;;;6.57;2.60;;;5.10;99.90;;;;;;5104671;28;20189;-74
2021/01/26 05:07:15;;;;;;;2.78;2.25;;;5.10;99.90;;;;;;5097816;28;20194;-75
2021/01/26 05:09:46;;;;;;;3.65;1.83;;;5.10;99.90;;;;;;5111169;28;20506;-75
2021/01/26 05:12:15;;;;;;;2.13;1.92;;;5.10;99.90;;;;;;5104424;28;20197;-75
2021/01/26 05:14:47;;;;;;;2.78;2.30;;;5.10;99.90;;;;;;5091037;28;20561;-75
2021/01/26 05:17:20;;;;;;;3.75;2.00;;;5.10;99.90;;;;;;5091345;28;20238;-75
2021/01/26 05:19:53;;;;;;;2.40;1.67;;;5.10;99.90;;;;;;5111430;28;20205;-75
2021/01/26 05:22:26;;;;;;;3.63;1.85;;;5.10;99.90;;;;;;5091299;28;20273;-75
2021/01/26 05:24:57;;;;;;;4.93;1.63;;;5.10;99.90;;;;;;5090946;28;20629;-75
2021/01/26 05:27:24;;;;;;;7.18;2.13;;;5.10;99.90;;;;;;5091506;28;20185;-75
2021/01/26 05:29:51;;;;;;;14.00;2.58;;;5.20;99.90;;;;;;5110442;28;20245;-75
2021/01/26 05:32:17;;;;;;;3.35;1.52;;;5.10;99.90;;;;;;5090586;28;20621;-74
2021/01/26 05:34:43;;;;;;;3.42;1.80;;;5.10;99.90;;;;;;5091025;28;20201;-74
2021/01/26 05:37:14;;;;;;;5.05;1.50;;;5.20;99.90;;;;;;5091073;28;20201;-74
2021/01/26 05:39:48;;;;;;;4.60;1.63;;;5.20;99.90;;;;;;5092486;28;20205;-74
2021/01/26 05:42:15;;;;;;;6.07;2.75;;;5.20;99.90;;;;;;5090846;28;20186;-74
2021/01/26 05:44:47;;;;;;;4.95;1.50;;;5.20;99.90;;;;;;5090414;28;20637;-75
2021/01/26 05:47:24;;;;;;;2.58;1.77;;;5.10;99.90;;;;;;5103240;28;20189;-75
2021/01/26 05:49:51;;;;;;;2.20;1.48;;;5.20;99.90;;;;;;5091117;28;20192;-75
2021/01/26 05:52:21;;;;;;;3.45;1.80;;;5.20;99.90;;;;;;5090753;28;20231;-75
2021/01/26 05:54:51;;;;;;;3.00;1.40;;;5.20;99.90;;;;;;5101563;28;20254;-74
2021/01/26 05:57:26;;;;;;;4.50;1.50;;;5.20;99.90;;;;;;5107988;28;20222;-76
2021/01/26 06:00:11;;;;;;;4.50;1.25;;;5.10;99.90;;;;;;5090453;28;20216;-76
2021/01/26 06:02:37;;;;;;;3.15;1.70;;;5.20;99.90;;;;;;5090598;28;20205;-75
2021/01/26 06:05:09;;;;;;;4.90;1.50;;;5.20;99.90;;;;;;5104962;28;20200;-74
2021/01/26 06:07:37;;;;;;;5.55;1.70;;;5.20;99.90;;;;;;5110613;28;20319;-74
2021/01/26 06:10:17;;;;;;;1.60;1.27;;;5.20;99.90;;;;;;5097015;28;20193;-74
2021/01/26 06:12:53;;;;;;;2.40;1.33;;;5.20;99.90;;;;;;5091490;28;20192;-73
2021/01/26 06:15:22;;;;;;;5.28;1.60;;;5.20;99.90;;;;;;5111104;28;20184;-73
2021/01/26 06:17:49;;;;;;;3.10;1.48;;;5.20;99.90;;;;;;5108101;28;20261;-73
2021/01/26 06:20:19;;;;;;;1.73;1.33;;;5.20;99.90;;;;;;5110440;28;20259;-73
2021/01/26 06:22:48;;;;;;;5.57;1.45;;;5.20;99.90;;;;;;5100913;28;20208;-73
2021/01/26 06:25:21;;;;;;;2.05;1.25;;;5.20;99.90;;;;;;5110755;28;20201;-74
2021/01/26 06:28:12;;;;;;;5.53;1.80;;;5.20;99.90;;;;;;5110815;28;20203;-74
2021/01/26 06:30:53;;;;;;;3.13;1.30;;;5.20;99.90;;;;;;5097624;28;20200;-73
2021/01/26 06:33:53;;;;;;;5.68;1.52;;;5.20;99.90;;;;;;5110791;28;20197;-74
2021/01/26 06:36:39;;;;;;;1.30;1.20;;;5.20;99.90;;;;;;5090557;28;20208;-74
2021/01/26 06:39:32;;;;;;;2.55;1.30;;;5.20;99.90;;;;;;5101211;28;20212;-74
2021/01/26 06:42:10;;;;;;;1.75;1.10;;;5.20;99.90;;;;;;5090530;28;20204;-74
2021/01/26 06:45:16;;;;;;;2.03;1.40;;;5.20;99.90;;;;;;5092862;28;20584;-74
2021/01/26 06:48:11;;;;;;;1.60;1.20;;;5.30;99.90;;;;;;5095336;28;20190;-73
2021/01/26 06:51:05;;;;;;;3.38;1.30;;;5.30;99.90;;;;;;5090492;28;20194;-74
2021/01/26 06:53:46;;;;;;;5.15;1.40;;;5.30;99.90;;;;;;5093920;28;20182;-75
2021/01/26 06:56:58;;;;;;;3.72;2.10;;;5.20;99.90;;;;;;5093891;28;20215;-74
2021/01/26 06:59:47;;;;;;;5.18;1.25;;;5.20;99.90;;;;;;5113403;28;20610;-75
2021/01/26 07:02:48;;;;;;;2.20;1.00;;;5.30;99.90;;;;;;5113956;28;20747;-75
2021/01/26 07:05:29;;;;;;;4.38;1.48;;;5.30;99.90;;;;;;5114099;28;20671;-75
2021/01/26 07:08:34;;;;;;;2.35;1.38;;;5.30;99.90;;;;;;5113420;28;20201;-74
2021/01/26 07:11:20;;;;;;;3.10;1.20;;;5.20;99.90;;;;;;5106729;28;20265;-73
2021/01/26 07:13:53;;;;;;;1.70;1.10;;;5.30;99.90;;;;;;5096482;28;20195;-73
2021/01/26 07:16:43;;;;;;;4.90;1.40;;;5.30;99.90;;;;;;5113832;28;20208;-73
2021/01/26 07:19:28;;;;;;;2.22;1.10;;;5.30;99.90;;;;;;5113839;28;20208;-73
2021/01/26 07:22:22;;;;;;;1.60;1.20;;;5.20;99.90;;;;;;5104373;28;20231;-73
2021/01/26 07:24:58;;;;;;;1.45;1.15;;;5.30;99.90;;;;;;5102376;28;20189;-73
2021/01/26 07:28:01;;;;;;;1.40;1.27;;;5.30;99.90;;;;;;5109714;28;20199;-74
2021/01/26 07:30:32;;;;;;;1.70;1.10;;;5.30;99.90;;;;;;5093017;28;20207;-73
2021/01/26 07:33:04;;;;;;;7.43;1.45;;;5.30;99.90;;;;;;5102522;28;20207;-73
2021/01/26 07:35:38;;;;;;;3.65;1.23;;;5.30;99.90;;;;;;5093156;28;20759;-73
2021/01/26 07:38:12;;;;;;;2.78;1.15;;;5.30;99.90;;;;;;5095996;28;20199;-73
2021/01/26 07:40:47;;;;;;;5.57;1.80;;;5.30;99.90;;;;;;5113702;28;20200;-73
2021/01/26 07:43:19;;;;;;;2.17;1.05;;;5.40;99.90;;;;;;5113331;28;20253;-77
2021/01/26 07:46:02;;;;;;;2.95;1.40;;;5.40;99.90;;;;;;5105536;28;20234;-75
2021/01/26 07:48:34;;;;;;;1.33;1.23;;;5.30;99.90;;;;;;5098926;28;20185;-75
2021/01/26 07:51:05;;;;;;;2.35;1.83;;;5.40;99.90;;;;;;5110934;28;20181;-75
2021/01/26 07:53:40;;;;;;;1.67;1.10;;;5.30;99.90;;;;;;5113407;28;20227;-75
2021/01/26 07:56:15;;;;;;;1.80;1.30;;;5.40;99.90;;;;;;5095913;28;20560;-76
2021/01/26 07:58:44;;;;;;;1.52;1.02;;;5.40;99.90;;;;;;5106461;28;20200;-75
2021/01/26 08:01:13;;;;;;;1.52;1.30;;;5.30;99.90;;;;;;5112531;28;20193;-75
2021/01/26 08:03:40;;;;;;;3.20;1.10;;;5.40;99.90;;;;;;5102251;28;20232;-74
2021/01/26 08:06:17;;;;;;;3.05;1.50;;;5.40;99.90;;;;;;5092496;28;20198;-77
2021/01/26 08:08:44;;;;;;;1.95;1.40;;;5.40;99.90;;;;;;5110139;28;20185;-77
2021/01/26 08:11:14;;;;;;;1.25;0.80;;;5.50;99.90;;;;;;5112981;28;20195;-78
2021/01/26 08:13:46;;;;;;;1.30;1.10;;;5.40;99.90;;;;;;5109918;28;20284;-77
2021/01/26 08:16:19;;;;;;;1.95;1.58;;;5.50;99.90;;;;;;5107429;28;20200;-76
2021/01/26 08:18:48;;;;;;;2.65;1.40;;;5.40;99.90;;;;;;5107534;28;20320;-76
2021/01/26 08:21:28;;;;;;;3.13;1.25;;;5.40;99.90;;;;;;5112127;28;20192;-76
2021/01/26 08:24:12;;;;;;;2.15;1.00;;;5.40;99.90;;;;;;5112483;28;20200;-76
2021/01/26 08:26:39;;;;;;;3.20;1.40;;;5.50;99.90;;;;;;5109732;28;20189;-76
2021/01/26 08:29:05;;;;;;;3.15;1.25;;;5.40;99.90;;;;;;5112681;28;20200;-76
2021/01/26 08:31:35;;;;;;;2.20;1.13;;;5.50;99.90;;;;;;5112293;28;20200;-76
2021/01/26 08:34:36;;;;;;;2.05;1.00;;;5.40;99.90;;;;;;5106945;28;20197;-75
2021/01/26 08:37:26;;;;;;;1.63;1.10;;;5.50;99.90;;;;;;5102104;28;20192;-75
2021/01/26 08:39:54;;;;;;;5.85;1.67;;;5.50;99.90;;;;;;5109625;27;20200;-76
2021/01/26 08:43:02;;;;;;;3.30;1.48;;;5.40;99.90;;;;;;5112215;28;20246;-76
2021/01/26 08:45:54;;;;;;;5.30;1.50;;;5.50;99.90;;;;;;5021973;28;20793;-76
2021/01/26 08:48:24;;;;;;;3.67;1.70;;;5.50;99.90;;;;;;5111359;28;20199;-76
2021/01/26 08:51:10;;;;;;;2.40;1.00;;;5.50;99.90;;;;;;5096523;28;20281;-76
2021/01/26 08:53:39;;;;;;;2.05;1.40;;;5.50;99.90;;;;;;5091781;28;20186;-76
2021/01/26 08:56:31;;;;;;;3.75;1.23;;;5.50;99.90;;;;;;5105066;28;20192;-76
2021/01/26 08:58:59;;;;;;;1.90;1.25;;;5.30;99.90;;;;;;5111910;28;20199;-76
2021/01/26 09:01:46;;;;;;;2.85;1.25;;;5.60;99.90;;;;;;5111788;28;20565;-76
2021/01/26 09:04:43;;;;;;;1.30;1.15;;;5.60;99.90;;;;;;5107349;28;20878;-78
2021/01/26 09:07:10;;;;;;;2.00;1.25;;;5.60;99.90;;;;;;5100330;28;20537;-78
2021/01/26 09:09:51;;;;;;;1.48;1.35;;;5.60;99.90;;;;;;5107011;28;20200;-78
2021/01/26 09:12:22;;;;;;;3.38;1.20;;;5.60;99.90;;;;;;5097298;28;20191;-78
2021/01/26 09:14:52;;;;;;;2.05;1.60;;;5.60;99.90;;;;;;5105021;28;20205;-78
2021/01/26 09:17:25;;;;;;;2.72;1.73;;;5.60;99.90;;;;;;5111244;28;20646;-77
2021/01/26 09:19:55;;;;;;;2.95;1.58;;;5.50;99.90;;;;;;5100925;28;20223;-78
2021/01/26 09:22:25;;;;;;;3.25;1.38;;;5.50;99.90;;;;;;5091499;28;20556;-77
2021/01/26 09:24:58;;;;;;;1.70;1.60;;;5.60;99.90;;;;;;5097892;28;20189;-78
2021/01/26 09:27:26;;;;;;;2.47;1.48;;;5.50;99.90;;;;;;5111108;28;20192;-77
2021/01/26 09:30:18;;;;;;;1.95;1.80;;;5.50;99.90;;;;;;5107473;28;20200;-77
2021/01/26 09:32:48;;;;;;;2.22;2.00;;;5.60;99.90;;;;;;5111621;28;20193;-77
2021/01/26 09:35:25;;;;;;;7.00;2.13;;;5.60;99.90;;;;;;5110723;28;20204;-78
2021/01/26 09:38:07;;;;;;;2.13;1.92;;;5.60;99.90;;;;;;5110768;28;20199;-78
2021/01/26 09:40:34;;;;;;;8.55;1.80;;;5.60;99.90;;;;;;5105118;28;20220;-79
2021/01/26 09:43:16;;;;;;;2.70;2.10;;;5.60;99.90;;;;;;5103511;28;20223;-76
2021/01/26 09:45:43;;;;;;;2.55;1.70;;;5.60;99.90;;;;;;5110565;28;20288;-76
2021/01/26 09:48:17;;;;;;;4.18;2.30;;;5.50;99.90;;;;;;5111053;28;20207;-78
2021/01/26 09:50:45;;;;;;;2.17;1.70;;;5.60;99.90;;;;;;5106408;28;20201;-78
2021/01/26 09:53:11;;;;;;;3.80;3.05;;;5.60;99.90;;;;;;5111249;28;20204;-79
2021/01/26 09:55:38;;;;;;;4.45;3.20;;;5.50;99.90;;;;;;5094087;28;20249;-79
2021/01/26 09:58:04;;;;;;;4.53;3.45;;;5.60;99.90;;;;;;5099730;28;20649;-78
2021/01/26 10:00:31;;;;;;;4.88;3.70;;;5.70;99.90;;;;;;5103445;28;20224;-77
2021/01/26 10:03:00;;;;;;;4.80;4.10;;;5.70;99.90;;;;;;5099480;28;20222;-76
2021/01/26 10:05:28;;;;;;;4.32;3.55;;;5.80;99.90;;;;;;5104887;28;20200;-76
2021/01/26 10:08:07;;;;;;;6.95;4.18;;;5.80;99.90;;;;;;5092579;28;20667;-76
2021/01/26 10:10:33;;;;;;;5.22;3.58;;;5.80;99.90;;;;;;5090339;28;20203;-77
2021/01/26 10:13:22;;;;;;;5.38;3.85;;;5.80;99.90;;;;;;5089566;28;20204;-76
2021/01/26 10:15:48;;;;;;;4.50;3.17;;;5.80;99.90;;;;;;5090114;28;20186;-77
2021/01/26 10:18:17;;;;;;;5.78;3.67;;;5.80;99.90;;;;;;5090091;28;20250;-76
2021/01/26 10:20:59;;;;;;;4.40;3.80;;;5.80;99.90;;;;;;5093609;28;20688;-77
2021/01/26 10:23:33;;;;;;;4.45;3.83;;;5.80;99.90;;;;;;5093956;28;20181;-76
2021/01/26 10:26:09;;;;;;;4.50;3.30;;;5.90;99.90;;;;;;5093846;28;20197;-76
2021/01/26 10:28:36;;;;;;;4.85;4.00;;;5.90;99.90;;;;;;5093492;28;20205;-76
2021/01/26 10:31:03;;;;;;;3.90;3.50;;;6.00;99.90;;;;;;5093672;28;20193;-77
2021/01/26 10:33:34;;;;;;;4.63;3.50;;;6.10;99.90;;;;;;5093174;28;20292;-77
2021/01/26 10:36:31;;;;;;;4.70;3.42;;;6.10;99.90;;;;;;5092465;28;20246;-77
2021/01/26 10:39:00;;;;;;;4.65;3.75;;;6.20;99.90;;;;;;5093817;28;20201;-77
2021/01/26 10:41:30;;;;;;;4.85;4.35;;;6.20;99.90;;;;;;5104254;28;20207;-76
2021/01/26 10:44:08;;;;;;;4.80;3.10;;;6.20;99.90;;;;;;5107303;28;20197;-76
2021/01/26 10:46:37;;;;;;;5.30;3.25;;;6.10;99.90;;;;;;5121184;27;20307;-76
2021/01/26 10:49:14;;;;;;;4.22;3.30;;;6.20;99.90;;;;;;5104334;28;20233;-76
2021/01/26 10:51:43;;;;;;;5.80;4.13;;;6.10;99.90;;;;;;5107038;28;20597;-76
2021/01/26 10:54:11;;;;;;;4.82;3.35;;;6.10;99.90;;;;;;5104972;28;20798;-76
2021/01/26 10:56:37;;;;;;;4.93;3.35;;;6.20;99.90;;;;;;5093273;28;20211;-76
2021/01/26 10:59:04;;;;;;;3.95;3.55;;;6.20;99.90;;;;;;5110193;28;20223;-76
2021/01/26 11:01:31;;;;;;;6.47;4.20;;;6.20;99.90;;;;;;5113167;28;20207;-76
2021/01/26 11:03:58;;;;;;;4.47;3.60;;;6.20;99.90;;;;;;5093301;28;20193;-76
2021/01/26 11:06:25;;;;;;;4.40;3.72;;;6.30;99.90;;;;;;5093046;28;20204;-76
2021/01/26 11:08:52;;;;;;;7.50;3.70;;;6.20;99.90;;;;;;5092818;28;20656;-76
2021/01/26 11:11:22;;;;;;;4.45;3.35;;;6.20;99.90;;;;;;5092846;28;20616;-76
2021/01/26 11:13:50;;;;;;;4.05;3.10;;;6.10;99.90;;;;;;5093001;28;20230;-76
2021/01/26 11:16:16;;;;;;;4.35;3.47;;;6.10;99.90;;;;;;5091924;28;20198;-76
2021/01/26 11:18:42;;;;;;;4.32;3.78;;;6.00;99.90;;;;;;5092755;28;20197;-76
2021/01/26 11:21:10;;;;;;;6.82;3.78;;;6.00;99.90;;;;;;5092731;28;20221;-76
2021/01/26 11:23:36;;;;;;;5.53;3.95;;;6.10;99.90;;;;;;5092719;28;20201;-76
2021/01/26 11:26:03;;;;;;;5.10;4.50;;;6.00;99.90;;;;;;5092356;28;20229;-76
2021/01/26 11:28:30;;;;;;;6.78;4.22;;;6.00;99.90;;;;;;5092949;28;20232;-76
2021/01/26 11:30:57;;;;;;;3.60;3.05;;;6.00;99.90;;;;;;5091535;28;20296;-76
2021/01/26 11:33:23;;;;;;;4.20;3.80;;;5.90;99.90;;;;;;5091255;28;20280;-76
2021/01/26 11:35:50;;;;;;;5.65;3.70;;;5.90;99.90;;;;;;5099486;28;20200;-76
2021/01/26 11:38:16;;;;;;;4.10;3.50;;;6.00;99.90;;;;;;5093774;28;20209;-76
2021/01/26 11:40:43;;;;;;;3.95;3.65;;;6.00;99.90;;;;;;5092295;28;20213;-76
2021/01/26 11:43:09;;;;;;;4.40;3.22;;;6.00;99.90;;;;;;5091893;28;20531;-76
2021/01/26 11:45:38;;;;;;;3.95;2.95;;;6.00;99.90;;;;;;5091514;28;20237;-76
2021/01/26 11:48:07;;;;;;;4.82;3.80;;;6.00;99.90;;;;;;5092097;28;20212;-76
2021/01/26 11:50:33;;;;;;;3.63;3.10;;;6.00;99.90;;;;;;5092017;28;20201;-76
2021/01/26 11:53:00;;;;;;;4.38;3.33;;;6.00;99.90;;;;;;5097859;28;20197;-76
2021/01/26 11:55:29;;;;;;;4.78;3.05;;;5.90;99.90;;;;;;5112486;28;20530;-76
2021/01/26 11:57:55;;;;;;;5.00;3.30;;;5.90;99.90;;;;;;5109331;28;20617;-76
2021/01/26 12:00:25;;;;;;;2.90;2.55;;;5.90;99.90;;;;;;5112204;28;20277;-76
2021/01/26 12:02:52;;;;;;;4.20;3.10;;;5.90;99.90;;;;;;5100369;28;20266;-76
2021/01/26 12:05:22;;;;;;;4.00;3.05;;;5.90;99.90;;;;;;5091792;28;20193;-76
2021/01/26 12:07:48;;;;;;;3.72;3.10;;;5.90;99.90;;;;;;5091570;28;20208;-76
2021/01/26 12:10:16;;;;;;;3.47;3.15;;;5.90;99.90;;;;;;5091409;28;20626;-74
2021/01/26 12:12:42;;;;;;;4.93;3.80;;;6.00;99.90;;;;;;5091550;28;20189;-73
2021/01/26 12:15:13;;;;;;;4.20;3.40;;;5.90;99.90;;;;;;5111744;27;20196;-73
2021/01/26 12:17:40;;;;;;;5.32;3.03;;;5.90;99.90;;;;;;5111912;28;20196;-73
2021/01/26 12:20:08;;;;;;;4.10;2.88;;;5.90;99.90;;;;;;5102087;28;20213;-73
2021/01/26 12:22:35;;;;;;;3.30;2.92;;;5.90;99.90;;;;;;5091103;28;20193;-73
2021/01/26 12:25:01;;;;;;;3.78;3.28;;;5.90;99.90;;;;;;5091320;28;20230;-74
2021/01/26 12:27:27;;;;;;;3.85;3.47;;;5.90;99.90;;;;;;5091669;28;20907;-73
2021/01/26 12:29:54;;;;;;;3.30;2.80;;;5.90;99.90;;;;;;5091248;28;20200;-74
2021/01/26 12:32:20;;;;;;;3.83;3.50;;;5.90;99.90;;;;;;5093577;28;20643;-73
2021/01/26 12:34:46;;;;;;;4.05;3.65;;;6.00;99.90;;;;;;5091509;28;20197;-73
2021/01/26 12:37:13;;;;;;;2.80;2.50;;;6.00;99.90;;;;;;5100710;27;20189;-73
2021/01/26 12:39:40;;;;;;;5.60;2.80;;;5.90;99.90;;;;;;5105553;27;20216;-73
2021/01/26 12:42:06;;;;;;;6.13;4.28;;;5.90;99.90;;;;;;5090370;28;20266;-73
2021/01/26 12:44:32;;;;;;;3.20;2.90;;;5.90;99.90;;;;;;5096182;28;20734;-74
2021/01/26 12:46:58;;;;;;;4.32;2.78;;;5.90;99.90;;;;;;5099516;28;20688;-73
2021/01/26 12:49:25;;;;;;;3.90;3.50;;;6.00;99.90;;;;;;5110894;28;20199;-73
2021/01/26 12:51:51;;;;;;;3.97;3.55;;;5.90;99.90;;;;;;5122876;27;20775;-73
2021/01/26 12:54:20;;;;;;;2.90;2.70;;;5.90;99.90;;;;;;5123364;27;20246;-73
2021/01/26 12:56:46;;;;;;;3.38;3.00;;;5.90;99.90;;;;;;5089971;28;20252;-73
2021/01/26 12:59:13;;;;;;;4.13;2.80;;;5.90;99.90;;;;;;5108727;28;20707;-74
2021/01/26 13:01:39;;;;;;;3.60;2.53;;;5.90;99.90;;;;;;5111166;28;20201;-73
2021/01/26 13:04:06;;;;;;;3.40;2.58;;;5.90;99.90;;;;;;5093719;28;20209;-74
2021/01/26 13:06:32;;;;;;;3.60;2.65;;;5.90;99.90;;;;;;5090774;28;20205;-73
2021/01/26 13:08:58;;;;;;;3.45;2.80;;;5.90;99.90;;;;;;5102239;28;20203;-73
2021/01/26 13:11:25;;;;;;;3.92;3.53;;;5.90;99.90;;;;;;5105139;28;20630;-73
2021/01/26 13:13:52;;;;;;;3.80;3.22;;;6.00;99.90;;;;;;5090646;28;20231;-73
2021/01/26 13:16:18;;;;;;;2.95;2.53;;;6.00;99.90;;;;;;5090200;28;20206;-73
2021/01/26 13:18:45;;;;;;;3.22;2.40;;;6.00;99.90;;;;;;5090686;28;20208;-73
2021/01/26 13:21:11;;;;;;;3.25;2.85;;;6.00;99.90;;;;;;5089929;28;20688;-73
2021/01/26 13:23:37;;;;;;;4.30;2.90;;;6.00;99.90;;;;;;5103575;27;20193;-73
2021/01/26 13:26:04;;;;;;;4.32;2.80;;;5.90;99.90;;;;;;5121102;27;20753;-73